Bookmark and Share
Track history (hours):
 

Mudcat

More information available from US FCC via Universal Licensing System and Coast Guard Vessel Documentation Center.

Last reported at 2014-Apr-24 01:10 UTC. Time now 2014-Apr-25 05:45 UTC.
Position N 47°39' W 122°20'.

Length 22 m; draft 2 m.

Type: Tug. MMSI: 366969750.

NotesDate/timePositionNaut miles runAvg speedWind from/ knotsBaromVisibWave heightAir tempDewpointWater temp
2014-Apr-24 01:10N 47°39' W 122°20'0 0.0
2014-Apr-24 01:07N 47°39' W 122°20'3 4.6
2014-Apr-24 00:32N 47°39' W 122°16'1 1.0
2014-Apr-23 23:29N 47°39' W 122°15'0 0.7
2014-Apr-23 23:18N 47°38' W 122°15'0 0.2
2014-Apr-23 22:27N 47°38' W 122°15'2 1.9
2014-Apr-23 21:37N 47°39' W 122°17'1 4.8
2014-Apr-23 21:29N 47°39' W 122°18'2 4.1
2014-Apr-23 21:03N 47°39' W 122°20'0 0.0
2014-Apr-23 01:40N 47°39' W 122°20'0 0.0
2014-Apr-23 01:33N 47°39' W 122°20'0 0.7
2014-Apr-23 01:30N 47°39' W 122°20'4 3.9
2014-Apr-23 00:25N 47°40' W 122°15'2 7.6
2014-Apr-23 00:10N 47°42' W 122°15'3 4.9
2014-Apr-22 23:32N 47°45' W 122°15'0 0.0
2014-Apr-22 22:32N 47°45' W 122°15'0 0.0
2014-Apr-22 21:30N 47°45' W 122°15'0 0.0
2014-Apr-22 20:33N 47°45' W 122°15'0 0.0
2014-Apr-22 19:11N 47°45' W 122°15'3 5.0
2014-Apr-22 18:32N 47°42' W 122°16'4 3.5
2014-Apr-22 17:29N 47°39' W 122°15'0 0.1
2014-Apr-22 16:49N 47°39' W 122°15'2 6.0
2014-Apr-22 16:33N 47°39' W 122°17'2 4.2
2014-Apr-22 16:04N 47°39' W 122°20'0 0.5
2014-Apr-22 15:33N 47°39' W 122°20'0 0.0
2014-Apr-22 00:40N 47°39' W 122°20'0 3.1
2014-Apr-22 00:33N 47°39' W 122°20'0 4.5
2014-Apr-22 00:30N 47°39' W 122°20'3 3.6
2014-Apr-21 23:32N 47°38' W 122°15'0 0.0
2014-Apr-21 22:24N 47°38' W 122°15'0 0.3
2014-Apr-21 22:22N 47°38' W 122°15'0 0.1
2014-Apr-21 21:32N 47°38' W 122°15'0 0.5
2014-Apr-21 20:43N 47°39' W 122°15'1 4.8
2014-Apr-21 20:32N 47°39' W 122°17'0 0.2
2014-Apr-21 20:18N 47°39' W 122°17'0 0.1
2014-Apr-21 19:31N 47°39' W 122°17'0 0.4
2014-Apr-21 19:28N 47°39' W 122°17'1 1.5
2014-Apr-21 18:33N 47°38' W 122°15'0 0.0
2014-Apr-21 18:33N 47°38' W 122°15'0 0.1
2014-Apr-21 17:30N 47°38' W 122°15'0 0.0
2014-Apr-21 17:22N 47°38' W 122°15'0 0.5
2014-Apr-21 16:33N 47°39' W 122°15'0 0.4
2014-Apr-21 15:42N 47°38' W 122°15'0 0.3
2014-Apr-21 15:31N 47°38' W 122°15'0 0.2
2014-Apr-21 15:13N 47°38' W 122°15'0 0.0
2014-Apr-21 14:33N 47°38' W 122°15'0 0.0
2014-Apr-21 14:28N 47°38' W 122°15'0 0.0
2014-Apr-21 13:31N 47°38' W 122°15'0 0.1
2014-Apr-21 13:27N 47°38' W 122°15'0 0.0
2014-Apr-21 12:33N 47°38' W 122°15'0 0.0
2014-Apr-21 12:33N 47°38' W 122°15'4 3.9
2014-Apr-21 11:33N 47°39' W 122°20'0 0.0
2014-Apr-21 11:33N 47°39' W 122°20'0 0.0
2014-Apr-20 00:34N 47°39' W 122°20'0 3.5
2014-Apr-20 00:33N 47°39' W 122°20'0 4.6
2014-Apr-20 00:30N 47°39' W 122°20'3 2.6
2014-Apr-19 23:32N 47°39' W 122°16'0 0.6
2014-Apr-19 22:49N 47°39' W 122°17'0 0.5
2014-Apr-19 22:22N 47°39' W 122°16'0 0.4
2014-Apr-19 21:49N 47°39' W 122°17'0 0.1
2014-Apr-19 21:32N 47°39' W 122°17'0 0.4
2014-Apr-19 21:04N 47°39' W 122°16'0 0.4
2014-Apr-19 20:32N 47°39' W 122°16'0 0.0
2014-Apr-19 19:33N 47°39' W 122°16'0 0.7
2014-Apr-19 19:11N 47°39' W 122°16'0 0.7
2014-Apr-19 18:33N 47°39' W 122°16'0 0.2
2014-Apr-19 18:21N 47°39' W 122°16'1 1.2
2014-Apr-19 17:33N 47°39' W 122°15'0 0.6
2014-Apr-19 17:01N 47°38' W 122°15'0 0.1
2014-Apr-19 16:33N 47°38' W 122°15'0 0.0
2014-Apr-19 16:31N 47°38' W 122°15'1 1.4
2014-Apr-19 15:33N 47°39' W 122°17'0 5.4
2014-Apr-19 15:31N 47°39' W 122°17'2 0.2
2014-Apr-19 00:55N 47°39' W 122°20'2 4.5
2014-Apr-19 00:25N 47°39' W 122°17'0 0.0
2014-Apr-19 00:25N 47°39' W 122°17'7 7.5
2014-Apr-18 23:33N 47°45' W 122°16'3 5.0
2014-Apr-18 22:55N 47°42' W 122°15'3 7.7
2014-Apr-18 22:28N 47°39' W 122°16'0 0.1
2014-Apr-18 22:25N 47°39' W 122°16'1 1.0
2014-Apr-18 21:30N 47°38' W 122°15'0 0.3
2014-Apr-18 21:19N 47°38' W 122°15'1 1.8
2014-Apr-18 20:32N 47°39' W 122°17'0 6.1
2014-Apr-18 20:30N 47°39' W 122°17'2 0.1
2014-Apr-17 05:14N 47°39' W 122°20'0 0.0
2014-Apr-17 05:14N 47°39' W 122°20'2 1.9
2014-Apr-17 04:23N 47°39' W 122°18'1 1.2
2014-Apr-17 03:32N 47°39' W 122°17'2 2.1
2014-Apr-17 02:33N 47°39' W 122°20'1 2.3
2014-Apr-17 02:18N 47°39' W 122°20'2 2.2
2014-Apr-17 01:33N 47°40' W 122°22'0 2.6
2014-Apr-17 01:28N 47°40' W 122°23'1 0.8
2014-Apr-17 00:34N 47°40' W 122°24'0 0.0
2014-Apr-17 00:33N 47°40' W 122°24'1 0.8
2014-Apr-16 23:34N 47°40' W 122°25'0 4.3
2014-Apr-16 23:33N 47°40' W 122°25'1 0.8
2014-Apr-16 22:33N 47°40' W 122°26'0 0.0
2014-Apr-16 22:29N 47°40' W 122°26'0 0.0
2014-Apr-16 21:33N 47°40' W 122°26'0 0.0
2014-Apr-16 21:33N 47°40' W 122°26'0 0.0
2014-Apr-16 20:33N 47°40' W 122°26'0 0.0
2014-Apr-16 20:33N 47°40' W 122°26'0 0.0
2014-Apr-16 19:33N 47°40' W 122°26'0 0.0
2014-Apr-16 19:33N 47°40' W 122°26'0 0.0
2014-Apr-16 18:33N 47°40' W 122°26'0 2.2
2014-Apr-16 18:33N 47°40' W 122°26'0 0.5
2014-Apr-16 17:33N 47°41' W 122°26'0 3.6
2014-Apr-16 17:33N 47°41' W 122°26'2 1.5
2014-Apr-16 16:33N 47°40' W 122°24'0 0.0
2014-Apr-16 16:33N 47°40' W 122°24'5 4.8
2014-Apr-16 15:33N 47°39' W 122°17'3 4.5
2014-Apr-16 14:47N 47°42' W 122°15'2 7.9
2014-Apr-16 14:33N 47°44' W 122°16'2 1.7
2014-Apr-16 13:32N 47°45' W 122°15'6 6.5
2014-Apr-16 12:33N 47°39' W 122°16'1 7.1
2014-Apr-16 12:27N 47°39' W 122°17'  
2014-Apr-14 01:53N 47°39' W 122°20'2 4.2
2014-Apr-14 01:18N 47°39' W 122°17'  

Dump ship's entire track history

sailing weather and tide predictions

Mudcat — WCY8255 — position and weather